sensor_id;sensor_type;location;lat;lon;timestamp;temperature;humidity
12287;DHT22;6206;53.100;11.098;2022-07-15T00:01:54;14.20;99.90
12287;DHT22;6206;53.100;11.098;2022-07-15T00:04:21;14.20;99.90
12287;DHT22;6206;53.100;11.098;2022-07-15T00:06:48;14.90;99.90
12287;DHT22;6206;53.100;11.098;2022-07-15T00:09:15;14.20;99.90
12287;DHT22;6206;53.100;11.098;2022-07-15T00:11:43;14.20;99.90
12287;DHT22;6206;53.100;11.098;2022-07-15T00:14:10;14.20;99.90
12287;DHT22;6206;53.100;11.098;2022-07-15T00:16:36;14.20;99.90
12287;DHT22;6206;53.100;11.098;2022-07-15T00:19:03;14.30;99.90
12287;DHT22;6206;53.100;11.098;2022-07-15T00:21:30;14.40;99.90
12287;DHT22;6206;53.100;11.098;2022-07-15T00:23:56;14.40;99.90
12287;DHT22;6206;53.100;11.098;2022-07-15T00:26:24;14.30;99.90
12287;DHT22;6206;53.100;11.098;2022-07-15T00:28:52;14.30;99.90
12287;DHT22;6206;53.100;11.098;2022-07-15T00:31:19;14.20;99.90
12287;DHT22;6206;53.100;11.098;2022-07-15T00:33:45;14.10;99.90
12287;DHT22;6206;53.100;11.098;2022-07-15T00:36:13;15.00;99.90
12287;DHT22;6206;53.100;11.098;2022-07-15T00:38:39;17.20;99.90
12287;DHT22;6206;53.100;11.098;2022-07-15T00:41:06;13.80;99.90
12287;DHT22;6206;53.100;11.098;2022-07-15T00:43:32;17.60;99.90
12287;DHT22;6206;53.100;11.098;2022-07-15T00:46:00;13.60;99.90
12287;DHT22;6206;53.100;11.098;2022-07-15T00:48:27;13.50;99.90
12287;DHT22;6206;53.100;11.098;2022-07-15T00:50:53;13.50;99.90
12287;DHT22;6206;53.100;11.098;2022-07-15T00:53:21;13.50;99.90
12287;DHT22;6206;53.100;11.098;2022-07-15T00:55:49;13.40;99.90
12287;DHT22;6206;53.100;11.098;2022-07-15T00:58:17;13.30;99.90
12287;DHT22;6206;53.100;11.098;2022-07-15T01:00:45;13.20;99.90
12287;DHT22;6206;53.100;11.098;2022-07-15T01:03:15;13.20;99.90
12287;DHT22;6206;53.100;11.098;2022-07-15T01:05:43;13.10;99.90
12287;DHT22;6206;53.100;11.098;2022-07-15T01:08:11;13.00;99.90
12287;DHT22;6206;53.100;11.098;2022-07-15T01:10:39;13.10;99.90
12287;DHT22;6206;53.100;11.098;2022-07-15T01:13:06;13.00;99.90
12287;DHT22;6206;53.100;11.098;2022-07-15T01:15:32;13.00;99.90
12287;DHT22;6206;53.100;11.098;2022-07-15T01:18:00;13.00;99.90
12287;DHT22;6206;53.100;11.098;2022-07-15T01:20:29;12.90;99.90
12287;DHT22;6206;53.100;11.098;2022-07-15T01:22:58;12.90;99.90
12287;DHT22;6206;53.100;11.098;2022-07-15T01:25:25;12.80;99.90
12287;DHT22;6206;53.100;11.098;2022-07-15T01:27:52;12.90;99.90
12287;DHT22;6206;53.100;11.098;2022-07-15T01:30:19;12.90;99.90
12287;DHT22;6206;53.100;11.098;2022-07-15T01:32:45;12.90;99.90
12287;DHT22;6206;53.100;11.098;2022-07-15T01:35:12;13.10;99.90
12287;DHT22;6206;53.100;11.098;2022-07-15T01:37:39;12.90;99.90
12287;DHT22;6206;53.100;11.098;2022-07-15T01:40:08;12.90;99.90
12287;DHT22;6206;53.100;11.098;2022-07-15T01:42:34;13.00;99.90
12287;DHT22;6206;53.100;11.098;2022-07-15T01:45:01;12.90;99.90
12287;DHT22;6206;53.100;11.098;2022-07-15T01:47:28;13.10;99.90
12287;DHT22;6206;53.100;11.098;2022-07-15T01:49:55;13.20;99.90
12287;DHT22;6206;53.100;11.098;2022-07-15T01:52:22;13.20;99.90
12287;DHT22;6206;53.100;11.098;2022-07-15T01:54:50;13.30;99.90
12287;DHT22;6206;53.100;11.098;2022-07-15T01:57:18;13.40;99.90
12287;DHT22;6206;53.100;11.098;2022-07-15T01:59:45;13.50;99.90
12287;DHT22;6206;53.100;11.098;2022-07-15T02:02:11;13.40;99.90
12287;DHT22;6206;53.100;11.098;2022-07-15T02:04:38;13.50;99.90
12287;DHT22;6206;53.100;11.098;2022-07-15T02:07:04;13.50;99.90
12287;DHT22;6206;53.100;11.098;2022-07-15T02:09:31;13.50;99.90
12287;DHT22;6206;53.100;11.098;2022-07-15T02:11:58;13.40;99.90
12287;DHT22;6206;53.100;11.098;2022-07-15T02:14:26;13.40;99.90
12287;DHT22;6206;53.100;11.098;2022-07-15T02:16:52;13.40;99.90
12287;DHT22;6206;53.100;11.098;2022-07-15T02:19:20;13.30;99.90
12287;DHT22;6206;53.100;11.098;2022-07-15T02:21:47;13.50;99.90
12287;DHT22;6206;53.100;11.098;2022-07-15T02:24:14;13.50;99.90
12287;DHT22;6206;53.100;11.098;2022-07-15T02:26:40;13.20;99.90
12287;DHT22;6206;53.100;11.098;2022-07-15T02:29:07;13.40;99.90
12287;DHT22;6206;53.100;11.098;2022-07-15T02:31:35;13.40;99.90
12287;DHT22;6206;53.100;11.098;2022-07-15T02:34:03;13.40;99.90
12287;DHT22;6206;53.100;11.098;2022-07-15T02:36:30;13.60;99.90
12287;DHT22;6206;53.100;11.098;2022-07-15T02:38:57;13.70;99.90
12287;DHT22;6206;53.100;11.098;2022-07-15T02:41:23;13.70;99.90
12287;DHT22;6206;53.100;11.098;2022-07-15T02:43:50;13.60;99.90
12287;DHT22;6206;53.100;11.098;2022-07-15T02:46:17;13.50;99.90
12287;DHT22;6206;53.100;11.098;2022-07-15T02:48:45;17.70;99.90
12287;DHT22;6206;53.100;11.098;2022-07-15T02:51:13;13.40;99.90
12287;DHT22;6206;53.100;11.098;2022-07-15T02:53:40;13.40;99.90
12287;DHT22;6206;53.100;11.098;2022-07-15T02:56:07;13.50;99.90
12287;DHT22;6206;53.100;11.098;2022-07-15T02:58:34;13.50;99.90
12287;DHT22;6206;53.100;11.098;2022-07-15T03:01:01;13.50;99.90
12287;DHT22;6206;53.100;11.098;2022-07-15T03:03:27;13.60;99.90
12287;DHT22;6206;53.100;11.098;2022-07-15T03:05:56;13.40;99.90
12287;DHT22;6206;53.100;11.098;2022-07-15T03:08:23;17.30;99.90
12287;DHT22;6206;53.100;11.098;2022-07-15T03:10:50;13.60;99.90
12287;DHT22;6206;53.100;11.098;2022-07-15T03:13:17;14.20;99.90
12287;DHT22;6206;53.100;11.098;2022-07-15T03:15:44;13.40;99.90
12287;DHT22;6206;53.100;11.098;2022-07-15T03:18:10;13.40;99.90
12287;DHT22;6206;53.100;11.098;2022-07-15T03:20:38;13.40;99.90
12287;DHT22;6206;53.100;11.098;2022-07-15T03:23:06;13.40;99.90
12287;DHT22;6206;53.100;11.098;2022-07-15T03:25:32;13.40;99.90
12287;DHT22;6206;53.100;11.098;2022-07-15T03:27:59;14.00;99.90
12287;DHT22;6206;53.100;11.098;2022-07-15T03:30:26;13.20;99.90
12287;DHT22;6206;53.100;11.098;2022-07-15T03:32:52;13.60;99.90
12287;DHT22;6206;53.100;11.098;2022-07-15T03:35:19;13.00;99.90
12287;DHT22;6206;53.100;11.098;2022-07-15T03:37:46;13.20;99.90
12287;DHT22;6206;53.100;11.098;2022-07-15T03:40:14;13.30;99.90
12287;DHT22;6206;53.100;11.098;2022-07-15T03:42:40;13.30;99.90
12287;DHT22;6206;53.100;11.098;2022-07-15T03:45:08;13.20;99.90
12287;DHT22;6206;53.100;11.098;2022-07-15T03:47:35;13.30;99.90
12287;DHT22;6206;53.100;11.098;2022-07-15T03:50:02;13.30;99.90
12287;DHT22;6206;53.100;11.098;2022-07-15T03:52:28;13.30;99.90
12287;DHT22;6206;53.100;11.098;2022-07-15T03:54:55;13.40;99.90
12287;DHT22;6206;53.100;11.098;2022-07-15T03:57:23;13.40;99.90
12287;DHT22;6206;53.100;11.098;2022-07-15T03:59:50;13.30;99.90
12287;DHT22;6206;53.100;11.098;2022-07-15T04:02:17;13.30;99.90
12287;DHT22;6206;53.100;11.098;2022-07-15T04:04:44;13.30;99.90
12287;DHT22;6206;53.100;11.098;2022-07-15T04:07:10;13.40;99.90
12287;DHT22;6206;53.100;11.098;2022-07-15T04:09:37;13.50;99.90
12287;DHT22;6206;53.100;11.098;2022-07-15T04:12:04;13.60;99.90
12287;DHT22;6206;53.100;11.098;2022-07-15T04:14:32;13.70;99.90
12287;DHT22;6206;53.100;11.098;2022-07-15T04:16:59;13.60;99.90
12287;DHT22;6206;53.100;11.098;2022-07-15T04:19:25;13.60;99.90
12287;DHT22;6206;53.100;11.098;2022-07-15T04:21:52;13.50;99.90
12287;DHT22;6206;53.100;11.098;2022-07-15T04:24:19;16.50;99.90
12287;DHT22;6206;53.100;11.098;2022-07-15T04:26:45;13.50;99.90
12287;DHT22;6206;53.100;11.098;2022-07-15T04:29:15;15.70;99.90
12287;DHT22;6206;53.100;11.098;2022-07-15T04:31:43;13.40;99.90
12287;DHT22;6206;53.100;11.098;2022-07-15T04:34:10;17.10;99.90
12287;DHT22;6206;53.100;11.098;2022-07-15T04:36:37;13.60;99.90
12287;DHT22;6206;53.100;11.098;2022-07-15T04:39:04;13.70;99.90
12287;DHT22;6206;53.100;11.098;2022-07-15T04:41:31;13.60;99.90
12287;DHT22;6206;53.100;11.098;2022-07-15T04:43:58;13.70;99.90
12287;DHT22;6206;53.100;11.098;2022-07-15T04:46:24;13.70;99.90
12287;DHT22;6206;53.100;11.098;2022-07-15T04:48:52;13.90;99.90
12287;DHT22;6206;53.100;11.098;2022-07-15T04:51:37;15.90;99.90
12287;DHT22;6206;53.100;11.098;2022-07-15T04:54:03;17.00;99.90
12287;DHT22;6206;53.100;11.098;2022-07-15T04:56:30;13.90;99.90
12287;DHT22;6206;53.100;11.098;2022-07-15T04:58:57;13.90;99.90
12287;DHT22;6206;53.100;11.098;2022-07-15T05:01:24;13.90;99.90
12287;DHT22;6206;53.100;11.098;2022-07-15T05:03:52;13.90;99.90
12287;DHT22;6206;53.100;11.098;2022-07-15T05:06:18;15.70;99.90
12287;DHT22;6206;53.100;11.098;2022-07-15T05:08:45;13.90;99.90
12287;DHT22;6206;53.100;11.098;2022-07-15T05:11:12;13.90;99.90
12287;DHT22;6206;53.100;11.098;2022-07-15T05:13:38;14.00;99.90
12287;DHT22;6206;53.100;11.098;2022-07-15T05:16:05;13.90;99.90
12287;DHT22;6206;53.100;11.098;2022-07-15T05:18:32;13.90;99.90
12287;DHT22;6206;53.100;11.098;2022-07-15T05:21:00;14.10;99.90
12287;DHT22;6206;53.100;11.098;2022-07-15T05:23:26;14.20;99.90
12287;DHT22;6206;53.100;11.098;2022-07-15T05:25:53;16.10;99.90
12287;DHT22;6206;53.100;11.098;2022-07-15T05:28:20;14.30;99.90
12287;DHT22;6206;53.100;11.098;2022-07-15T05:30:47;14.40;99.90
12287;DHT22;6206;53.100;11.098;2022-07-15T05:33:15;14.40;99.90
12287;DHT22;6206;53.100;11.098;2022-07-15T05:35:42;14.40;99.90
12287;DHT22;6206;53.100;11.098;2022-07-15T05:38:10;13.90;99.90
12287;DHT22;6206;53.100;11.098;2022-07-15T05:40:37;14.60;99.90
12287;DHT22;6206;53.100;11.098;2022-07-15T05:43:04;14.70;99.90
12287;DHT22;6206;53.100;11.098;2022-07-15T05:45:31;14.70;99.90
12287;DHT22;6206;53.100;11.098;2022-07-15T05:47:58;14.80;99.90
12287;DHT22;6206;53.100;11.098;2022-07-15T05:50:25;14.70;99.90
12287;DHT22;6206;53.100;11.098;2022-07-15T05:52:51;14.70;99.90
12287;DHT22;6206;53.100;11.098;2022-07-15T05:55:19;14.80;99.90
12287;DHT22;6206;53.100;11.098;2022-07-15T05:57:46;14.60;99.90
12287;DHT22;6206;53.100;11.098;2022-07-15T06:00:14;14.80;99.90
12287;DHT22;6206;53.100;11.098;2022-07-15T06:02:41;14.80;99.90
12287;DHT22;6206;53.100;11.098;2022-07-15T06:05:08;14.90;99.90
12287;DHT22;6206;53.100;11.098;2022-07-15T06:07:35;14.90;99.90
12287;DHT22;6206;53.100;11.098;2022-07-15T06:10:03;14.90;99.90
12287;DHT22;6206;53.100;11.098;2022-07-15T06:12:31;15.00;99.90
12287;DHT22;6206;53.100;11.098;2022-07-15T06:14:57;15.00;99.90
12287;DHT22;6206;53.100;11.098;2022-07-15T06:17:24;15.20;99.90
12287;DHT22;6206;53.100;11.098;2022-07-15T06:19:51;17.80;99.90
12287;DHT22;6206;53.100;11.098;2022-07-15T06:22:17;15.50;99.90
12287;DHT22;6206;53.100;11.098;2022-07-15T06:24:44;15.60;99.90
12287;DHT22;6206;53.100;11.098;2022-07-15T06:27:11;15.70;99.90
12287;DHT22;6206;53.100;11.098;2022-07-15T06:29:39;15.70;99.90
12287;DHT22;6206;53.100;11.098;2022-07-15T06:32:06;15.80;99.90
12287;DHT22;6206;53.100;11.098;2022-07-15T06:34:33;15.70;99.90
12287;DHT22;6206;53.100;11.098;2022-07-15T06:37:00;15.90;99.90
12287;DHT22;6206;53.100;11.098;2022-07-15T06:39:26;15.90;99.90
12287;DHT22;6206;53.100;11.098;2022-07-15T06:41:53;19.60;99.90
12287;DHT22;6206;53.100;11.098;2022-07-15T06:44:19;18.40;99.90
12287;DHT22;6206;53.100;11.098;2022-07-15T06:46:47;16.50;99.90
12287;DHT22;6206;53.100;11.098;2022-07-15T06:49:14;16.40;99.90
12287;DHT22;6206;53.100;11.098;2022-07-15T06:51:41;16.10;99.90
12287;DHT22;6206;53.100;11.098;2022-07-15T06:54:08;16.10;99.90
12287;DHT22;6206;53.100;11.098;2022-07-15T06:56:34;16.50;99.90
12287;DHT22;6206;53.100;11.098;2022-07-15T06:59:01;20.40;99.90
12287;DHT22;6206;53.100;11.098;2022-07-15T07:01:27;17.50;99.90
12287;DHT22;6206;53.100;11.098;2022-07-15T07:03:56;17.20;99.90
12287;DHT22;6206;53.100;11.098;2022-07-15T07:06:23;16.70;99.90
12287;DHT22;6206;53.100;11.098;2022-07-15T07:08:50;16.90;99.90
12287;DHT22;6206;53.100;11.098;2022-07-15T07:11:31;19.20;99.90
12287;DHT22;6206;53.100;11.098;2022-07-15T07:13:58;17.10;99.90
12287;DHT22;6206;53.100;11.098;2022-07-15T07:16:26;17.00;99.90
12287;DHT22;6206;53.100;11.098;2022-07-15T07:18:52;16.90;99.90
12287;DHT22;6206;53.100;11.098;2022-07-15T07:21:21;16.80;99.90
12287;DHT22;6206;53.100;11.098;2022-07-15T07:23:47;17.70;99.90
12287;DHT22;6206;53.100;11.098;2022-07-15T07:26:15;18.20;99.90
12287;DHT22;6206;53.100;11.098;2022-07-15T07:28:42;17.40;99.90
12287;DHT22;6206;53.100;11.098;2022-07-15T07:31:10;17.30;99.90
12287;DHT22;6206;53.100;11.098;2022-07-15T07:33:37;18.60;99.90
12287;DHT22;6206;53.100;11.098;2022-07-15T07:36:05;17.00;99.90
12287;DHT22;6206;53.100;11.098;2022-07-15T07:38:35;17.10;99.90
12287;DHT22;6206;53.100;11.098;2022-07-15T07:41:02;16.80;99.90
12287;DHT22;6206;53.100;11.098;2022-07-15T07:43:29;20.10;99.90
12287;DHT22;6206;53.100;11.098;2022-07-15T07:45:57;17.10;99.90
12287;DHT22;6206;53.100;11.098;2022-07-15T07:48:23;16.80;99.90
12287;DHT22;6206;53.100;11.098;2022-07-15T07:50:50;15.50;99.90
12287;DHT22;6206;53.100;11.098;2022-07-15T07:53:17;16.90;99.90
12287;DHT22;6206;53.100;11.098;2022-07-15T07:55:45;16.90;99.90
12287;DHT22;6206;53.100;11.098;2022-07-15T07:58:11;19.10;99.90
12287;DHT22;6206;53.100;11.098;2022-07-15T08:00:41;17.00;99.90
12287;DHT22;6206;53.100;11.098;2022-07-15T08:03:08;17.20;99.90
12287;DHT22;6206;53.100;11.098;2022-07-15T08:05:34;17.20;99.90
12287;DHT22;6206;53.100;11.098;2022-07-15T08:08:09;17.40;99.90
12287;DHT22;6206;53.100;11.098;2022-07-15T08:10:36;17.50;99.90
12287;DHT22;6206;53.100;11.098;2022-07-15T08:13:04;17.00;99.90
12287;DHT22;6206;53.100;11.098;2022-07-15T08:15:31;17.20;99.90
12287;DHT22;6206;53.100;11.098;2022-07-15T08:17:57;19.30;99.90
12287;DHT22;6206;53.100;11.098;2022-07-15T08:20:24;17.70;99.90
12287;DHT22;6206;53.100;11.098;2022-07-15T08:22:51;17.80;99.90
12287;DHT22;6206;53.100;11.098;2022-07-15T08:25:24;17.70;99.90
12287;DHT22;6206;53.100;11.098;2022-07-15T08:27:50;17.90;99.90
12287;DHT22;6206;53.100;11.098;2022-07-15T08:30:18;17.70;99.90
12287;DHT22;6206;53.100;11.098;2022-07-15T08:32:45;18.00;99.90
12287;DHT22;6206;53.100;11.098;2022-07-15T08:35:12;17.90;99.90
12287;DHT22;6206;53.100;11.098;2022-07-15T08:37:38;18.10;99.90
12287;DHT22;6206;53.100;11.098;2022-07-15T08:40:06;18.50;99.90
12287;DHT22;6206;53.100;11.098;2022-07-15T08:42:34;18.40;99.90
12287;DHT22;6206;53.100;11.098;2022-07-15T08:45:01;18.50;99.90
12287;DHT22;6206;53.100;11.098;2022-07-15T08:47:31;18.20;99.90
12287;DHT22;6206;53.100;11.098;2022-07-15T08:49:59;20.00;99.90
12287;DHT22;6206;53.100;11.098;2022-07-15T08:52:26;18.10;99.90
12287;DHT22;6206;53.100;11.098;2022-07-15T08:54:53;18.70;99.90
12287;DHT22;6206;53.100;11.098;2022-07-15T08:57:20;17.70;99.90
12287;DHT22;6206;53.100;11.098;2022-07-15T08:59:46;17.80;99.90
12287;DHT22;6206;53.100;11.098;2022-07-15T09:02:14;17.70;99.90
12287;DHT22;6206;53.100;11.098;2022-07-15T09:07:54;17.80;99.90
12287;DHT22;6206;53.100;11.098;2022-07-15T09:10:21;18.00;99.90
12287;DHT22;6206;53.100;11.098;2022-07-15T09:12:49;18.10;99.90
12287;DHT22;6206;53.100;11.098;2022-07-15T09:15:30;18.20;99.90
12287;DHT22;6206;53.100;11.098;2022-07-15T09:18:03;18.30;99.90
12287;DHT22;6206;53.100;11.098;2022-07-15T09:20:32;18.70;99.90
12287;DHT22;6206;53.100;11.098;2022-07-15T09:23:00;18.60;99.90
12287;DHT22;6206;53.100;11.098;2022-07-15T09:25:28;19.00;99.90
12287;DHT22;6206;53.100;11.098;2022-07-15T09:27:55;18.80;99.90
12287;DHT22;6206;53.100;11.098;2022-07-15T09:30:24;22.50;99.90
12287;DHT22;6206;53.100;11.098;2022-07-15T09:33:11;18.50;99.90
12287;DHT22;6206;53.100;11.098;2022-07-15T09:36:12;18.60;99.90
12287;DHT22;6206;53.100;11.098;2022-07-15T09:38:43;21.80;99.90
12287;DHT22;6206;53.100;11.098;2022-07-15T09:41:13;18.90;99.90
12287;DHT22;6206;53.100;11.098;2022-07-15T09:43:48;18.90;99.90
12287;DHT22;6206;53.100;11.098;2022-07-15T09:46:15;19.10;99.90
12287;DHT22;6206;53.100;11.098;2022-07-15T09:48:44;19.20;99.90
12287;DHT22;6206;53.100;11.098;2022-07-15T09:51:11;19.50;99.90
12287;DHT22;6206;53.100;11.098;2022-07-15T09:53:39;22.50;99.90
12287;DHT22;6206;53.100;11.098;2022-07-15T09:56:10;20.70;99.90
12287;DHT22;6206;53.100;11.098;2022-07-15T09:58:38;19.20;99.90
12287;DHT22;6206;53.100;11.098;2022-07-15T10:01:06;18.90;99.90
12287;DHT22;6206;53.100;11.098;2022-07-15T10:03:33;19.90;99.90
12287;DHT22;6206;53.100;11.098;2022-07-15T10:06:01;21.50;99.90
12287;DHT22;6206;53.100;11.098;2022-07-15T10:08:28;19.10;99.90
12287;DHT22;6206;53.100;11.098;2022-07-15T10:10:56;19.00;99.90
12287;DHT22;6206;53.100;11.098;2022-07-15T10:13:43;18.60;99.90
12287;DHT22;6206;53.100;11.098;2022-07-15T10:16:25;18.40;99.90
12287;DHT22;6206;53.100;11.098;2022-07-15T10:19:02;18.40;99.90
12287;DHT22;6206;53.100;11.098;2022-07-15T10:21:35;18.40;99.90
12287;DHT22;6206;53.100;11.098;2022-07-15T10:24:26;18.30;99.90
12287;DHT22;6206;53.100;11.098;2022-07-15T10:27:09;18.50;99.90
12287;DHT22;6206;53.100;11.098;2022-07-15T10:29:41;18.60;99.90
12287;DHT22;6206;53.100;11.098;2022-07-15T10:32:08;19.30;99.90
12287;DHT22;6206;53.100;11.098;2022-07-15T10:34:36;19.20;99.90
12287;DHT22;6206;53.100;11.098;2022-07-15T10:37:07;19.90;99.90
12287;DHT22;6206;53.100;11.098;2022-07-15T10:39:53;19.40;99.90
12287;DHT22;6206;53.100;11.098;2022-07-15T10:42:23;22.20;99.90
12287;DHT22;6206;53.100;11.098;2022-07-15T10:45:08;19.20;99.90
12287;DHT22;6206;53.100;11.098;2022-07-15T10:47:35;19.20;99.90
12287;DHT22;6206;53.100;11.098;2022-07-15T10:50:35;21.80;99.90
12287;DHT22;6206;53.100;11.098;2022-07-15T10:53:17;20.00;99.90
12287;DHT22;6206;53.100;11.098;2022-07-15T10:55:45;19.80;99.90
12287;DHT22;6206;53.100;11.098;2022-07-15T10:58:12;20.10;99.90
12287;DHT22;6206;53.100;11.098;2022-07-15T11:00:44;19.40;99.90
12287;DHT22;6206;53.100;11.098;2022-07-15T11:03:13;19.20;99.90
12287;DHT22;6206;53.100;11.098;2022-07-15T11:06:01;23.30;99.90
12287;DHT22;6206;53.100;11.098;2022-07-15T11:08:48;19.30;99.90
12287;DHT22;6206;53.100;11.098;2022-07-15T11:11:48;19.60;99.90
12287;DHT22;6206;53.100;11.098;2022-07-15T11:17:37;19.50;99.90
12287;DHT22;6206;53.100;11.098;2022-07-15T11:20:07;23.00;99.90
12287;DHT22;6206;53.100;11.098;2022-07-15T11:22:37;19.80;99.90
12287;DHT22;6206;53.100;11.098;2022-07-15T11:25:05;19.70;99.90
12287;DHT22;6206;53.100;11.098;2022-07-15T11:27:32;19.50;99.90
12287;DHT22;6206;53.100;11.098;2022-07-15T11:30:02;19.50;99.90
12287;DHT22;6206;53.100;11.098;2022-07-15T11:32:32;19.20;99.90
12287;DHT22;6206;53.100;11.098;2022-07-15T11:35:01;20.40;99.90
12287;DHT22;6206;53.100;11.098;2022-07-15T11:37:31;19.70;99.90
12287;DHT22;6206;53.100;11.098;2022-07-15T11:40:08;20.00;99.90
12287;DHT22;6206;53.100;11.098;2022-07-15T11:42:35;19.30;99.90
12287;DHT22;6206;53.100;11.098;2022-07-15T11:45:32;22.10;99.90
12287;DHT22;6206;53.100;11.098;2022-07-15T11:48:01;19.80;99.90
12287;DHT22;6206;53.100;11.098;2022-07-15T11:50:28;19.90;99.90
12287;DHT22;6206;53.100;11.098;2022-07-15T11:52:55;19.80;99.90
12287;DHT22;6206;53.100;11.098;2022-07-15T11:55:22;21.90;99.90
12287;DHT22;6206;53.100;11.098;2022-07-15T11:57:49;19.70;99.90
12287;DHT22;6206;53.100;11.098;2022-07-15T12:00:17;20.90;99.90
12287;DHT22;6206;53.100;11.098;2022-07-15T12:02:45;19.70;99.90
12287;DHT22;6206;53.100;11.098;2022-07-15T12:05:13;19.70;99.90
12287;DHT22;6206;53.100;11.098;2022-07-15T12:07:41;19.80;99.90
12287;DHT22;6206;53.100;11.098;2022-07-15T12:10:09;19.90;99.90
12287;DHT22;6206;53.100;11.098;2022-07-15T12:12:40;19.80;99.90
12287;DHT22;6206;53.100;11.098;2022-07-15T12:15:09;20.80;99.90
12287;DHT22;6206;53.100;11.098;2022-07-15T12:17:36;20.30;99.90
12287;DHT22;6206;53.100;11.098;2022-07-15T12:20:04;22.90;99.90
12287;DHT22;6206;53.100;11.098;2022-07-15T12:22:33;20.70;99.90
12287;DHT22;6206;53.100;11.098;2022-07-15T12:25:00;23.70;99.90
12287;DHT22;6206;53.100;11.098;2022-07-15T12:27:34;23.50;99.90
12287;DHT22;6206;53.100;11.098;2022-07-15T12:30:02;22.30;99.90
12287;DHT22;6206;53.100;11.098;2022-07-15T12:32:29;25.00;99.90
12287;DHT22;6206;53.100;11.098;2022-07-15T12:34:57;21.40;99.90
12287;DHT22;6206;53.100;11.098;2022-07-15T12:37:26;23.60;99.90
12287;DHT22;6206;53.100;11.098;2022-07-15T12:39:56;23.50;99.90
12287;DHT22;6206;53.100;11.098;2022-07-15T12:42:23;22.00;99.90
12287;DHT22;6206;53.100;11.098;2022-07-15T12:45:12;21.90;99.90
12287;DHT22;6206;53.100;11.098;2022-07-15T12:48:01;20.70;99.90
12287;DHT22;6206;53.100;11.098;2022-07-15T12:50:28;21.00;99.90
12287;DHT22;6206;53.100;11.098;2022-07-15T12:52:55;21.40;99.90
12287;DHT22;6206;53.100;11.098;2022-07-15T12:55:26;23.70;99.90
12287;DHT22;6206;53.100;11.098;2022-07-15T12:58:03;23.80;99.90
12287;DHT22;6206;53.100;11.098;2022-07-15T13:00:30;20.40;99.90
12287;DHT22;6206;53.100;11.098;2022-07-15T13:03:02;20.80;99.90
12287;DHT22;6206;53.100;11.098;2022-07-15T13:05:31;23.40;99.90
12287;DHT22;6206;53.100;11.098;2022-07-15T13:07:58;23.30;99.90
12287;DHT22;6206;53.100;11.098;2022-07-15T13:10:29;24.60;99.90
12287;DHT22;6206;53.100;11.098;2022-07-15T13:12:56;20.50;99.90
12287;DHT22;6206;53.100;11.098;2022-07-15T13:15:23;22.90;99.90
12287;DHT22;6206;53.100;11.098;2022-07-15T13:17:50;20.50;99.90
12287;DHT22;6206;53.100;11.098;2022-07-15T13:20:17;20.60;99.90
12287;DHT22;6206;53.100;11.098;2022-07-15T13:22:45;20.70;99.90
12287;DHT22;6206;53.100;11.098;2022-07-15T13:25:12;24.10;99.90
12287;DHT22;6206;53.100;11.098;2022-07-15T13:27:41;24.10;99.90
12287;DHT22;6206;53.100;11.098;2022-07-15T13:30:09;23.00;99.90
12287;DHT22;6206;53.100;11.098;2022-07-15T13:32:36;21.00;99.90
12287;DHT22;6206;53.100;11.098;2022-07-15T13:35:04;22.10;99.90
12287;DHT22;6206;53.100;11.098;2022-07-15T13:37:30;23.20;99.90
12287;DHT22;6206;53.100;11.098;2022-07-15T13:39:57;24.80;99.90
12287;DHT22;6206;53.100;11.098;2022-07-15T13:42:24;25.70;99.90
12287;DHT22;6206;53.100;11.098;2022-07-15T13:44:52;25.30;99.90
12287;DHT22;6206;53.100;11.098;2022-07-15T13:47:19;24.40;99.90
12287;DHT22;6206;53.100;11.098;2022-07-15T13:49:46;23.10;99.90
12287;DHT22;6206;53.100;11.098;2022-07-15T13:52:31;18.30;99.90
12287;DHT22;6206;53.100;11.098;2022-07-15T13:54:58;25.90;99.90
12287;DHT22;6206;53.100;11.098;2022-07-15T13:57:25;23.70;99.90
12287;DHT22;6206;53.100;11.098;2022-07-15T13:59:53;22.20;99.90
12287;DHT22;6206;53.100;11.098;2022-07-15T14:02:19;20.70;99.90
12287;DHT22;6206;53.100;11.098;2022-07-15T14:04:46;22.50;99.90
12287;DHT22;6206;53.100;11.098;2022-07-15T14:07:13;23.80;99.90
12287;DHT22;6206;53.100;11.098;2022-07-15T14:09:40;26.40;99.90
12287;DHT22;6206;53.100;11.098;2022-07-15T14:12:07;24.50;99.90
12287;DHT22;6206;53.100;11.098;2022-07-15T14:14:33;23.30;99.90
12287;DHT22;6206;53.100;11.098;2022-07-15T14:17:01;22.70;99.90
12287;DHT22;6206;53.100;11.098;2022-07-15T14:19:28;24.20;99.90
12287;DHT22;6206;53.100;11.098;2022-07-15T14:21:55;22.10;99.90
12287;DHT22;6206;53.100;11.098;2022-07-15T14:24:21;22.40;99.90
12287;DHT22;6206;53.100;11.098;2022-07-15T14:26:48;23.20;99.90
12287;DHT22;6206;53.100;11.098;2022-07-15T14:29:15;26.40;99.90
12287;DHT22;6206;53.100;11.098;2022-07-15T14:31:42;25.60;99.90
12287;DHT22;6206;53.100;11.098;2022-07-15T14:34:10;24.90;99.90
12287;DHT22;6206;53.100;11.098;2022-07-15T14:36:36;24.30;99.90
12287;DHT22;6206;53.100;11.098;2022-07-15T14:39:03;25.80;99.90
12287;DHT22;6206;53.100;11.098;2022-07-15T14:41:30;24.00;99.90
12287;DHT22;6206;53.100;11.098;2022-07-15T14:43:57;24.10;99.90
12287;DHT22;6206;53.100;11.098;2022-07-15T14:46:24;25.60;99.90
12287;DHT22;6206;53.100;11.098;2022-07-15T14:48:51;24.30;99.90
12287;DHT22;6206;53.100;11.098;2022-07-15T14:51:19;25.40;99.90
12287;DHT22;6206;53.100;11.098;2022-07-15T14:53:46;23.00;99.90
12287;DHT22;6206;53.100;11.098;2022-07-15T14:56:12;23.00;99.90
12287;DHT22;6206;53.100;11.098;2022-07-15T14:58:39;26.80;99.90
12287;DHT22;6206;53.100;11.098;2022-07-15T15:01:06;24.70;99.90
12287;DHT22;6206;53.100;11.098;2022-07-15T15:03:32;25.00;99.90
12287;DHT22;6206;53.100;11.098;2022-07-15T15:05:59;25.40;99.90
12287;DHT22;6206;53.100;11.098;2022-07-15T15:08:27;22.30;99.90
12287;DHT22;6206;53.100;11.098;2022-07-15T15:10:54;21.00;99.90
12287;DHT22;6206;53.100;11.098;2022-07-15T15:13:21;20.80;99.90
12287;DHT22;6206;53.100;11.098;2022-07-15T15:15:48;25.10;99.90
12287;DHT22;6206;53.100;11.098;2022-07-15T15:18:15;21.80;99.90
12287;DHT22;6206;53.100;11.098;2022-07-15T15:20:41;24.60;99.90
12287;DHT22;6206;53.100;11.098;2022-07-15T15:23:08;22.50;99.90
12287;DHT22;6206;53.100;11.098;2022-07-15T15:25:36;23.30;99.90
12287;DHT22;6206;53.100;11.098;2022-07-15T15:28:20;25.20;99.90
12287;DHT22;6206;53.100;11.098;2022-07-15T15:30:50;22.20;99.90
12287;DHT22;6206;53.100;11.098;2022-07-15T15:33:16;21.60;99.90
12287;DHT22;6206;53.100;11.098;2022-07-15T15:35:43;20.70;99.90
12287;DHT22;6206;53.100;11.098;2022-07-15T15:38:10;20.90;99.90
12287;DHT22;6206;53.100;11.098;2022-07-15T15:40:38;24.00;99.90
12287;DHT22;6206;53.100;11.098;2022-07-15T15:43:05;22.40;99.90
12287;DHT22;6206;53.100;11.098;2022-07-15T15:45:32;19.60;99.90